sensor_id;sensor_type;location;lat;lon;timestamp;pressure;altitude;pressure_sealevel;temperature;humidity
48652;BME280;34442;52.362;-1.302;2023-04-26T00:02:25;100541.09;;;7.61;70.69
48652;BME280;34442;52.362;-1.302;2023-04-26T00:04:54;100532.88;;;7.63;70.87
48652;BME280;34442;52.362;-1.302;2023-04-26T00:07:22;100529.19;;;7.64;70.90
48652;BME280;34442;52.362;-1.302;2023-04-26T00:09:49;100534.38;;;7.65;70.18
48652;BME280;34442;52.362;-1.302;2023-04-26T00:12:16;100524.75;;;7.56;70.86
48652;BME280;34442;52.362;-1.302;2023-04-26T00:14:47;100528.25;;;7.57;71.49
48652;BME280;34442;52.362;-1.302;2023-04-26T00:17:12;100529.28;;;7.56;71.56
48652;BME280;34442;52.362;-1.302;2023-04-26T00:19:38;100537.66;;;7.53;72.00
48652;BME280;34442;52.362;-1.302;2023-04-26T00:22:04;100526.88;;;7.46;72.11
48652;BME280;34442;52.362;-1.302;2023-04-26T00:24:30;100526.97;;;7.53;72.53
48652;BME280;34442;52.362;-1.302;2023-04-26T00:26:56;100528.53;;;7.47;72.58
48652;BME280;34442;52.362;-1.302;2023-04-26T00:29:22;100529.34;;;7.47;72.43
48652;BME280;34442;52.362;-1.302;2023-04-26T00:31:48;100528.53;;;7.47;72.82
48652;BME280;34442;52.362;-1.302;2023-04-26T00:34:14;100524.00;;;7.47;73.12
48652;BME280;34442;52.362;-1.302;2023-04-26T00:36:39;100516.88;;;7.40;73.13
48652;BME280;34442;52.362;-1.302;2023-04-26T00:39:05;100521.34;;;7.47;73.61
48652;BME280;34442;52.362;-1.302;2023-04-26T00:41:30;100526.78;;;7.54;73.20
48652;BME280;34442;52.362;-1.302;2023-04-26T00:43:56;100525.31;;;7.52;73.53
48652;BME280;34442;52.362;-1.302;2023-04-26T00:46:21;100526.88;;;7.46;73.98
48652;BME280;34442;52.362;-1.302;2023-04-26T00:48:50;100519.56;;;7.40;74.95
48652;BME280;34442;52.362;-1.302;2023-04-26T00:51:15;100506.94;;;7.34;75.39
48652;BME280;34442;52.362;-1.302;2023-04-26T00:53:41;100506.19;;;7.25;75.59
48652;BME280;34442;52.362;-1.302;2023-04-26T00:56:08;100504.63;;;7.31;76.10
48652;BME280;34442;52.362;-1.302;2023-04-26T00:58:35;100510.44;;;7.34;75.35
48652;BME280;34442;52.362;-1.302;2023-04-26T01:01:01;100511.47;;;7.33;75.59
48652;BME280;34442;52.362;-1.302;2023-04-26T01:03:27;100511.91;;;7.22;76.47
48652;BME280;34442;52.362;-1.302;2023-04-26T01:05:52;100506.00;;;7.27;76.30
48652;BME280;34442;52.362;-1.302;2023-04-26T01:08:18;100501.47;;;7.27;76.63
48652;BME280;34442;52.362;-1.302;2023-04-26T01:10:46;100503.53;;;7.25;76.19
48652;BME280;34442;52.362;-1.302;2023-04-26T01:13:13;100505.38;;;7.25;76.56
48652;BME280;34442;52.362;-1.302;2023-04-26T01:15:43;100504.63;;;7.16;77.46
48652;BME280;34442;52.362;-1.302;2023-04-26T01:18:09;100503.88;;;7.22;77.00
48652;BME280;34442;52.362;-1.302;2023-04-26T01:20:35;100498.53;;;7.22;76.84
48652;BME280;34442;52.362;-1.302;2023-04-26T01:23:00;100496.06;;;7.65;74.96
48652;BME280;34442;52.362;-1.302;2023-04-26T01:25:26;100501.22;;;7.37;74.92
48652;BME280;34442;52.362;-1.302;2023-04-26T01:27:52;100502.97;;;7.30;75.75
48652;BME280;34442;52.362;-1.302;2023-04-26T01:30:17;100493.72;;;7.32;75.56
48652;BME280;34442;52.362;-1.302;2023-04-26T01:32:43;100497.34;;;7.69;74.20
48652;BME280;34442;52.362;-1.302;2023-04-26T01:35:08;100487.19;;;7.94;71.95
48652;BME280;34442;52.362;-1.302;2023-04-26T01:37:34;100494.88;;;7.38;74.98
48652;BME280;34442;52.362;-1.302;2023-04-26T01:39:59;100496.78;;;7.44;74.58
48652;BME280;34442;52.362;-1.302;2023-04-26T01:42:25;100496.25;;;7.49;74.73
48652;BME280;34442;52.362;-1.302;2023-04-26T01:44:50;100503.28;;;7.50;75.23
48652;BME280;34442;52.362;-1.302;2023-04-26T01:47:16;100498.63;;;7.43;75.28
48652;BME280;34442;52.362;-1.302;2023-04-26T01:49:41;100491.63;;;7.42;75.58
48652;BME280;34442;52.362;-1.302;2023-04-26T01:52:07;100491.28;;;7.45;75.45
48652;BME280;34442;52.362;-1.302;2023-04-26T01:54:32;100489.59;;;7.44;75.93
48652;BME280;34442;52.362;-1.302;2023-04-26T01:56:58;100502.25;;;7.51;75.80
48652;BME280;34442;52.362;-1.302;2023-04-26T01:59:23;100498.63;;;7.43;76.64
48652;BME280;34442;52.362;-1.302;2023-04-26T02:01:48;100491.91;;;7.47;76.59
48652;BME280;34442;52.362;-1.302;2023-04-26T02:04:14;100487.03;;;7.51;76.23
48652;BME280;34442;52.362;-1.302;2023-04-26T02:06:39;100495.06;;;7.51;76.37
48652;BME280;34442;52.362;-1.302;2023-04-26T02:09:06;100480.03;;;7.50;76.49
48652;BME280;34442;52.362;-1.302;2023-04-26T02:11:33;100474.75;;;7.42;76.98
48652;BME280;34442;52.362;-1.302;2023-04-26T02:13:59;100482.94;;;7.40;77.77
48652;BME280;34442;52.362;-1.302;2023-04-26T02:16:24;100488.03;;;7.35;77.52
48652;BME280;34442;52.362;-1.302;2023-04-26T02:18:51;100490.69;;;7.35;77.93
48652;BME280;34442;52.362;-1.302;2023-04-26T02:21:17;100487.66;;;7.38;78.08
48652;BME280;34442;52.362;-1.302;2023-04-26T02:23:43;100479.38;;;7.33;78.50
48652;BME280;34442;52.362;-1.302;2023-04-26T02:26:09;100486.09;;;7.29;78.99
48652;BME280;34442;52.362;-1.302;2023-04-26T02:28:36;100479.72;;;7.30;79.02
48652;BME280;34442;52.362;-1.302;2023-04-26T02:31:02;100482.94;;;7.26;79.42
48652;BME280;34442;52.362;-1.302;2023-04-26T02:33:27;100486.09;;;7.29;79.60
48652;BME280;34442;52.362;-1.302;2023-04-26T02:35:52;100480.56;;;7.31;79.90
48652;BME280;34442;52.362;-1.302;2023-04-26T02:38:18;100479.06;;;7.28;80.41
48652;BME280;34442;52.362;-1.302;2023-04-26T02:40:43;100481.84;;;7.35;80.41
48652;BME280;34442;52.362;-1.302;2023-04-26T02:43:10;100486.19;;;7.36;80.04
48652;BME280;34442;52.362;-1.302;2023-04-26T02:45:42;100485.63;;;7.40;81.05
48652;BME280;34442;52.362;-1.302;2023-04-26T02:48:07;100480.00;;;7.35;81.30
48652;BME280;34442;52.362;-1.302;2023-04-26T02:50:33;100487.31;;;7.41;80.67
48652;BME280;34442;52.362;-1.302;2023-04-26T02:52:58;100490.81;;;7.42;81.31
48652;BME280;34442;52.362;-1.302;2023-04-26T02:55:23;100484.81;;;7.40;81.22
48652;BME280;34442;52.362;-1.302;2023-04-26T02:57:49;100491.16;;;7.39;81.80
48652;BME280;34442;52.362;-1.302;2023-04-26T03:00:15;100481.66;;;7.36;81.80
48652;BME280;34442;52.362;-1.302;2023-04-26T03:02:40;100484.53;;;7.35;82.40
48652;BME280;34442;52.362;-1.302;2023-04-26T03:05:06;100486.56;;;7.33;82.52
48652;BME280;34442;52.362;-1.302;2023-04-26T03:07:33;100492.34;;;7.36;81.87
48652;BME280;34442;52.362;-1.302;2023-04-26T03:09:59;100492.81;;;7.25;82.75
48652;BME280;34442;52.362;-1.302;2023-04-26T03:12:25;100489.59;;;7.30;83.25
48652;BME280;34442;52.362;-1.302;2023-04-26T03:14:50;100489.31;;;7.39;82.41
48652;BME280;34442;52.362;-1.302;2023-04-26T03:17:16;100488.03;;;7.35;83.25
48652;BME280;34442;52.362;-1.302;2023-04-26T03:19:41;100486.38;;;7.34;83.66
48652;BME280;34442;52.362;-1.302;2023-04-26T03:22:07;100484.97;;;7.24;84.91
48652;BME280;34442;52.362;-1.302;2023-04-26T03:24:32;100477.69;;;7.32;84.29
48652;BME280;34442;52.362;-1.302;2023-04-26T03:26:58;100488.25;;;7.11;86.14
48652;BME280;34442;52.362;-1.302;2023-04-26T03:29:24;100475.00;;;7.32;84.79
48652;BME280;34442;52.362;-1.302;2023-04-26T03:31:49;100470.59;;;7.39;84.96
48652;BME280;34442;52.362;-1.302;2023-04-26T03:34:15;100467.28;;;7.37;85.77
48652;BME280;34442;52.362;-1.302;2023-04-26T03:36:40;100465.81;;;7.35;85.40
48652;BME280;34442;52.362;-1.302;2023-04-26T03:39:06;100466.63;;;7.35;85.70
48652;BME280;34442;52.362;-1.302;2023-04-26T03:41:31;100462.94;;;7.36;86.39
48652;BME280;34442;52.362;-1.302;2023-04-26T03:44:01;100469.13;;;7.37;85.96
48652;BME280;34442;52.362;-1.302;2023-04-26T03:46:26;100463.13;;;7.35;86.54
48652;BME280;34442;52.362;-1.302;2023-04-26T03:48:52;100453.25;;;7.35;86.32
48652;BME280;34442;52.362;-1.302;2023-04-26T03:51:17;100463.31;;;7.33;86.79
48652;BME280;34442;52.362;-1.302;2023-04-26T03:53:42;100452.25;;;7.36;86.79
48652;BME280;34442;52.362;-1.302;2023-04-26T03:56:10;100455.09;;;7.35;86.88
48652;BME280;34442;52.362;-1.302;2023-04-26T03:58:36;100453.63;;;7.17;88.14
48652;BME280;34442;52.362;-1.302;2023-04-26T04:01:01;100458.59;;;7.35;86.75
48652;BME280;34442;52.362;-1.302;2023-04-26T04:03:27;100464.31;;;7.32;87.33
48652;BME280;34442;52.362;-1.302;2023-04-26T04:05:54;100464.97;;;7.34;87.08
48652;BME280;34442;52.362;-1.302;2023-04-26T04:08:20;100465.81;;;7.35;87.96
48652;BME280;34442;52.362;-1.302;2023-04-26T04:10:45;100463.03;;;7.28;88.16
48652;BME280;34442;52.362;-1.302;2023-04-26T04:13:11;100459.25;;;7.08;89.41
48652;BME280;34442;52.362;-1.302;2023-04-26T04:15:36;100465.06;;;7.26;88.40
48652;BME280;34442;52.362;-1.302;2023-04-26T04:18:02;100467.94;;;7.25;88.55
48652;BME280;34442;52.362;-1.302;2023-04-26T04:20:28;100458.06;;;7.25;88.49
48652;BME280;34442;52.362;-1.302;2023-04-26T04:22:53;100452.31;;;7.28;88.35
48652;BME280;34442;52.362;-1.302;2023-04-26T04:25:19;100449.75;;;7.05;90.29
48652;BME280;34442;52.362;-1.302;2023-04-26T04:27:47;100451.31;;;7.14;90.25
48652;BME280;34442;52.362;-1.302;2023-04-26T04:30:12;100455.56;;;7.24;89.84
48652;BME280;34442;52.362;-1.302;2023-04-26T04:32:38;100441.00;;;7.26;89.40
48652;BME280;34442;52.362;-1.302;2023-04-26T04:35:06;100437.50;;;7.26;89.85
48652;BME280;34442;52.362;-1.302;2023-04-26T04:37:32;100438.94;;;7.87;85.81
48652;BME280;34442;52.362;-1.302;2023-04-26T04:39:59;100447.00;;;7.58;87.46
48652;BME280;34442;52.362;-1.302;2023-04-26T04:42:24;100442.75;;;7.34;89.23
48652;BME280;34442;52.362;-1.302;2023-04-26T04:44:52;100446.00;;;7.29;89.51
48652;BME280;34442;52.362;-1.302;2023-04-26T04:47:17;100450.31;;;7.30;89.50
48652;BME280;34442;52.362;-1.302;2023-04-26T04:49:42;100450.50;;;7.29;89.99
48652;BME280;34442;52.362;-1.302;2023-04-26T04:52:08;100454.09;;;7.21;90.93
48652;BME280;34442;52.362;-1.302;2023-04-26T04:54:33;100443.69;;;7.26;90.83
48652;BME280;34442;52.362;-1.302;2023-04-26T04:56:59;100453.19;;;7.29;90.67
48652;BME280;34442;52.362;-1.302;2023-04-26T04:59:25;100452.31;;;7.28;91.28
48652;BME280;34442;52.362;-1.302;2023-04-26T05:01:51;100454.16;;;7.28;91.08
48652;BME280;34442;52.362;-1.302;2023-04-26T05:04:16;100453.47;;;7.34;90.97
48652;BME280;34442;52.362;-1.302;2023-04-26T05:06:42;100464.78;;;7.36;90.95
48652;BME280;34442;52.362;-1.302;2023-04-26T05:09:10;100467.94;;;7.39;91.72
48652;BME280;34442;52.362;-1.302;2023-04-26T05:11:36;100462.41;;;7.41;91.19
48652;BME280;34442;52.362;-1.302;2023-04-26T05:14:01;100460.16;;;7.44;91.00
48652;BME280;34442;52.362;-1.302;2023-04-26T05:16:27;100465.53;;;7.44;91.23
48652;BME280;34442;52.362;-1.302;2023-04-26T05:18:52;100462.03;;;7.44;91.50
48652;BME280;34442;52.362;-1.302;2023-04-26T05:21:18;100465.53;;;7.44;91.64
48652;BME280;34442;52.362;-1.302;2023-04-26T05:23:43;100467.69;;;7.49;91.63
48652;BME280;34442;52.362;-1.302;2023-04-26T05:26:14;100463.97;;;7.50;91.83
48652;BME280;34442;52.362;-1.302;2023-04-26T05:28:40;100473.66;;;7.51;91.71
48652;BME280;34442;52.362;-1.302;2023-04-26T05:31:07;100468.56;;;7.56;91.57
48652;BME280;34442;52.362;-1.302;2023-04-26T05:33:32;100464.50;;;7.60;91.82
48652;BME280;34442;52.362;-1.302;2023-04-26T05:35:57;100468.47;;;7.64;91.77
48652;BME280;34442;52.362;-1.302;2023-04-26T05:38:24;100464.63;;;7.67;91.59
48652;BME280;34442;52.362;-1.302;2023-04-26T05:40:49;100467.91;;;7.69;91.67
48652;BME280;34442;52.362;-1.302;2023-04-26T05:43:15;100465.16;;;7.77;91.54
48652;BME280;34442;52.362;-1.302;2023-04-26T05:45:51;100462.47;;;7.77;91.90
48652;BME280;34442;52.362;-1.302;2023-04-26T05:48:17;100461.47;;;7.78;91.67
48652;BME280;34442;52.362;-1.302;2023-04-26T05:50:42;100465.03;;;7.85;91.07
48652;BME280;34442;52.362;-1.302;2023-04-26T05:53:07;100456.28;;;7.91;91.08
48652;BME280;34442;52.362;-1.302;2023-04-26T05:55:33;100469.84;;;7.90;91.08
48652;BME280;34442;52.362;-1.302;2023-04-26T05:57:58;100474.25;;;7.97;90.63
48652;BME280;34442;52.362;-1.302;2023-04-26T06:00:24;100473.53;;;8.04;90.71
48652;BME280;34442;52.362;-1.302;2023-04-26T06:02:49;100479.03;;;8.02;90.57
48652;BME280;34442;52.362;-1.302;2023-04-26T06:05:15;100484.22;;;8.04;91.14
48652;BME280;34442;52.362;-1.302;2023-04-26T06:07:41;100491.59;;;8.16;91.04
48652;BME280;34442;52.362;-1.302;2023-04-26T06:10:07;100492.31;;;8.25;90.24
48652;BME280;34442;52.362;-1.302;2023-04-26T06:12:32;100483.44;;;8.25;90.87
48652;BME280;34442;52.362;-1.302;2023-04-26T06:14:58;100487.78;;;8.26;91.21
48652;BME280;34442;52.362;-1.302;2023-04-26T06:17:23;100480.19;;;8.29;90.86
48652;BME280;34442;52.362;-1.302;2023-04-26T06:19:49;100481.28;;;8.35;90.48
48652;BME280;34442;52.362;-1.302;2023-04-26T06:22:15;100477.88;;;8.41;91.32
48652;BME280;34442;52.362;-1.302;2023-04-26T06:24:40;100485.75;;;8.28;91.93
48652;BME280;34442;52.362;-1.302;2023-04-26T06:27:05;100489.88;;;8.45;90.89
48652;BME280;34442;52.362;-1.302;2023-04-26T06:29:31;100493.47;;;8.52;90.73
48652;BME280;34442;52.362;-1.302;2023-04-26T06:31:57;100487.25;;;8.52;90.99
48652;BME280;34442;52.362;-1.302;2023-04-26T06:34:23;100491.09;;;8.64;90.45
48652;BME280;34442;52.362;-1.302;2023-04-26T06:36:48;100496.97;;;8.74;89.90
48652;BME280;34442;52.362;-1.302;2023-04-26T06:39:14;100499.72;;;8.81;89.15
48652;BME280;34442;52.362;-1.302;2023-04-26T06:41:41;100500.78;;;8.86;90.00
48652;BME280;34442;52.362;-1.302;2023-04-26T06:44:07;100497.72;;;8.68;91.15
48652;BME280;34442;52.362;-1.302;2023-04-26T06:46:33;100493.34;;;8.82;90.24
48652;BME280;34442;52.362;-1.302;2023-04-26T06:48:59;100492.88;;;9.00;89.40
48652;BME280;34442;52.362;-1.302;2023-04-26T06:51:25;100491.66;;;9.02;89.50
48652;BME280;34442;52.362;-1.302;2023-04-26T06:53:51;100489.53;;;9.19;88.85
48652;BME280;34442;52.362;-1.302;2023-04-26T06:56:17;100497.44;;;9.34;88.20
48652;BME280;34442;52.362;-1.302;2023-04-26T06:59:06;100491.75;;;9.43;88.70
48652;BME280;34442;52.362;-1.302;2023-04-26T07:01:33;100495.78;;;9.05;90.68
48652;BME280;34442;52.362;-1.302;2023-04-26T07:04:02;100484.78;;;9.21;90.08
48652;BME280;34442;52.362;-1.302;2023-04-26T07:06:29;100484.63;;;9.29;89.66
48652;BME280;34442;52.362;-1.302;2023-04-26T07:08:57;100481.19;;;9.35;89.00
48652;BME280;34442;52.362;-1.302;2023-04-26T07:11:23;100490.38;;;9.54;88.35
48652;BME280;34442;52.362;-1.302;2023-04-26T07:13:49;100491.47;;;9.66;88.74
48652;BME280;34442;52.362;-1.302;2023-04-26T07:16:15;100482.88;;;9.78;88.71
48652;BME280;34442;52.362;-1.302;2023-04-26T07:18:40;100487.03;;;9.80;88.97
48652;BME280;34442;52.362;-1.302;2023-04-26T07:21:05;100478.13;;;9.80;88.80
48652;BME280;34442;52.362;-1.302;2023-04-26T07:23:31;100478.97;;;9.87;88.61
48652;BME280;34442;52.362;-1.302;2023-04-26T07:25:57;100475.47;;;9.80;89.25
48652;BME280;34442;52.362;-1.302;2023-04-26T07:28:22;100482.63;;;9.73;90.08
48652;BME280;34442;52.362;-1.302;2023-04-26T07:30:48;100477.06;;;9.74;90.02
48652;BME280;34442;52.362;-1.302;2023-04-26T07:33:13;100481.06;;;9.85;89.67
48652;BME280;34442;52.362;-1.302;2023-04-26T07:35:39;100480.81;;;9.80;89.76
48652;BME280;34442;52.362;-1.302;2023-04-26T07:38:04;100473.66;;;9.93;89.12
48652;BME280;34442;52.362;-1.302;2023-04-26T07:40:31;100484.44;;;10.00;88.88
48652;BME280;34442;52.362;-1.302;2023-04-26T07:42:59;100476.16;;;10.02;87.68
48652;BME280;34442;52.362;-1.302;2023-04-26T07:45:24;100483.19;;;9.96;88.91
48652;BME280;34442;52.362;-1.302;2023-04-26T07:47:50;100486.94;;;10.08;88.24
48652;BME280;34442;52.362;-1.302;2023-04-26T07:50:15;100476.63;;;10.18;88.57
48652;BME280;34442;52.362;-1.302;2023-04-26T07:52:41;100482.91;;;10.32;87.62
48652;BME280;34442;52.362;-1.302;2023-04-26T07:55:08;100481.03;;;10.26;88.41
48652;BME280;34442;52.362;-1.302;2023-04-26T07:57:33;100486.19;;;10.28;87.28
48652;BME280;34442;52.362;-1.302;2023-04-26T07:59:59;100490.34;;;10.30;86.95
48652;BME280;34442;52.362;-1.302;2023-04-26T08:02:24;100481.41;;;10.23;86.63
48652;BME280;34442;52.362;-1.302;2023-04-26T08:04:50;100481.16;;;10.79;83.43
48652;BME280;34442;52.362;-1.302;2023-04-26T08:07:17;100482.53;;;10.42;85.24
48652;BME280;34442;52.362;-1.302;2023-04-26T08:09:43;100488.69;;;10.29;85.73
48652;BME280;34442;52.362;-1.302;2023-04-26T08:12:10;100483.03;;;10.24;85.42
48652;BME280;34442;52.362;-1.302;2023-04-26T08:14:36;100484.81;;;10.45;84.72
48652;BME280;34442;52.362;-1.302;2023-04-26T08:17:02;100474.50;;;10.62;82.55
48652;BME280;34442;52.362;-1.302;2023-04-26T08:19:31;100477.22;;;10.75;82.65
48652;BME280;34442;52.362;-1.302;2023-04-26T08:21:57;100479.88;;;10.82;82.14
48652;BME280;34442;52.362;-1.302;2023-04-26T08:24:26;100465.81;;;10.73;81.50
48652;BME280;34442;52.362;-1.302;2023-04-26T08:26:51;100466.88;;;10.79;81.98
48652;BME280;34442;52.362;-1.302;2023-04-26T08:29:17;100475.16;;;10.90;82.11
48652;BME280;34442;52.362;-1.302;2023-04-26T08:31:43;100474.50;;;11.15;80.72
48652;BME280;34442;52.362;-1.302;2023-04-26T08:34:08;100477.63;;;11.32;80.89
48652;BME280;34442;52.362;-1.302;2023-04-26T08:36:36;100473.38;;;11.76;79.36
48652;BME280;34442;52.362;-1.302;2023-04-26T08:39:02;100467.47;;;12.12;78.15
48652;BME280;34442;52.362;-1.302;2023-04-26T08:41:40;100468.09;;;12.46;75.57
48652;BME280;34442;52.362;-1.302;2023-04-26T08:44:07;100471.16;;;12.56;76.54
48652;BME280;34442;52.362;-1.302;2023-04-26T08:46:43;100468.44;;;12.24;68.23
48652;BME280;34442;52.362;-1.302;2023-04-26T08:49:36;100462.94;;;12.44;69.79
48652;BME280;34442;52.362;-1.302;2023-04-26T08:52:08;100462.53;;;12.40;75.05
48652;BME280;34442;52.362;-1.302;2023-04-26T08:54:38;100464.31;;;12.53;76.07
48652;BME280;34442;52.362;-1.302;2023-04-26T08:57:04;100466.47;;;12.45;74.35
48652;BME280;34442;52.362;-1.302;2023-04-26T08:59:41;100465.72;;;12.62;71.84
48652;BME280;34442;52.362;-1.302;2023-04-26T09:02:09;100464.50;;;12.58;75.19
48652;BME280;34442;52.362;-1.302;2023-04-26T09:04:35;100459.31;;;12.57;74.78
48652;BME280;34442;52.362;-1.302;2023-04-26T09:07:02;100467.41;;;12.57;74.79
48652;BME280;34442;52.362;-1.302;2023-04-26T09:09:34;100465.84;;;12.74;72.20
48652;BME280;34442;52.362;-1.302;2023-04-26T09:12:03;100475.81;;;12.74;73.83
48652;BME280;34442;52.362;-1.302;2023-04-26T09:14:29;100474.25;;;12.59;74.18
48652;BME280;34442;52.362;-1.302;2023-04-26T09:16:55;100471.72;;;12.33;74.32
48652;BME280;34442;52.362;-1.302;2023-04-26T09:19:40;100473.41;;;12.59;69.08
48652;BME280;34442;52.362;-1.302;2023-04-26T09:22:09;100472.28;;;12.73;72.59
48652;BME280;34442;52.362;-1.302;2023-04-26T09:24:48;100479.03;;;12.57;63.80
48652;BME280;34442;52.362;-1.302;2023-04-26T09:27:15;100475.03;;;12.91;70.72
48652;BME280;34442;52.362;-1.302;2023-04-26T09:32:21;100479.34;;;12.99;70.31
48652;BME280;34442;52.362;-1.302;2023-04-26T09:34:47;100481.16;;;12.80;69.95
48652;BME280;34442;52.362;-1.302;2023-04-26T09:37:13;100477.75;;;12.91;69.85
48652;BME280;34442;52.362;-1.302;2023-04-26T09:39:40;100479.56;;;12.98;69.60
48652;BME280;34442;52.362;-1.302;2023-04-26T09:42:06;100478.31;;;13.00;69.74
48652;BME280;34442;52.362;-1.302;2023-04-26T09:44:32;100469.44;;;12.93;69.04
48652;BME280;34442;52.362;-1.302;2023-04-26T09:49:46;100469.63;;;13.16;63.37
48652;BME280;34442;52.362;-1.302;2023-04-26T09:52:13;100464.09;;;13.11;68.85
48652;BME280;34442;52.362;-1.302;2023-04-26T09:54:41;100467.28;;;13.02;68.35
48652;BME280;34442;52.362;-1.302;2023-04-26T09:57:07;100459.78;;;13.04;68.65
48652;BME280;34442;52.362;-1.302;2023-04-26T10:00:01;100457.22;;;12.59;60.54
48652;BME280;34442;52.362;-1.302;2023-04-26T10:02:32;100452.44;;;12.29;69.40
48652;BME280;34442;52.362;-1.302;2023-04-26T10:04:58;100457.00;;;12.29;69.50
48652;BME280;34442;52.362;-1.302;2023-04-26T10:07:25;100458.13;;;12.78;67.94
48652;BME280;34442;52.362;-1.302;2023-04-26T10:09:52;100450.00;;;13.34;66.37
48652;BME280;34442;52.362;-1.302;2023-04-26T10:12:18;100450.84;;;13.72;65.73
48652;BME280;34442;52.362;-1.302;2023-04-26T10:14:45;100451.53;;;13.67;64.68
48652;BME280;34442;52.362;-1.302;2023-04-26T10:17:11;100448.44;;;13.63;65.36
48652;BME280;34442;52.362;-1.302;2023-04-26T10:19:38;100447.22;;;13.78;62.91
48652;BME280;34442;52.362;-1.302;2023-04-26T10:22:08;100444.31;;;13.43;64.12
48652;BME280;34442;52.362;-1.302;2023-04-26T10:24:35;100445.03;;;13.31;64.50
48652;BME280;34442;52.362;-1.302;2023-04-26T10:27:01;100439.66;;;13.31;64.81
48652;BME280;34442;52.362;-1.302;2023-04-26T10:30:05;100427.44;;;13.47;60.41
48652;BME280;34442;52.362;-1.302;2023-04-26T10:32:31;100429.91;;;13.49;64.49
48652;BME280;34442;52.362;-1.302;2023-04-26T10:35:11;100425.69;;;13.53;60.21
48652;BME280;34442;52.362;-1.302;2023-04-26T10:40:36;100417.25;;;13.98;60.48
48652;BME280;34442;52.362;-1.302;2023-04-26T10:45:42;100414.78;;;14.26;62.18
48652;BME280;34442;52.362;-1.302;2023-04-26T10:53:56;100420.97;;;14.15;56.68
48652;BME280;34442;52.362;-1.302;2023-04-26T10:59:10;100407.25;;;14.17;60.15
48652;BME280;34442;52.362;-1.302;2023-04-26T11:01:36;100396.28;;;14.42;61.11
48652;BME280;34442;52.362;-1.302;2023-04-26T11:04:09;100404.50;;;14.47;57.03
48652;BME280;34442;52.362;-1.302;2023-04-26T11:06:59;100399.88;;;14.35;53.27
48652;BME280;34442;52.362;-1.302;2023-04-26T11:09:37;100392.25;;;14.32;56.81
48652;BME280;34442;52.362;-1.302;2023-04-26T11:12:11;100384.56;;;14.18;54.83
48652;BME280;34442;52.362;-1.302;2023-04-26T11:14:37;100394.53;;;14.17;60.50
48652;BME280;34442;52.362;-1.302;2023-04-26T11:17:04;100390.00;;;14.29;59.73
48652;BME280;34442;52.362;-1.302;2023-04-26T11:19:31;100390.16;;;14.46;59.27
48652;BME280;34442;52.362;-1.302;2023-04-26T11:22:01;100387.97;;;14.55;57.74
48652;BME280;34442;52.362;-1.302;2023-04-26T11:24:29;100384.63;;;14.41;58.93
48652;BME280;34442;52.362;-1.302;2023-04-26T11:26:55;100394.03;;;14.38;59.85
48652;BME280;34442;52.362;-1.302;2023-04-26T11:29:22;100398.81;;;14.25;60.46
48652;BME280;34442;52.362;-1.302;2023-04-26T11:31:52;100383.53;;;14.30;59.53
48652;BME280;34442;52.362;-1.302;2023-04-26T11:34:31;100388.72;;;14.32;56.38
48652;BME280;34442;52.362;-1.302;2023-04-26T11:36:56;100385.97;;;14.20;61.07
48652;BME280;34442;52.362;-1.302;2023-04-26T11:39:22;100389.50;;;13.90;60.68
48652;BME280;34442;52.362;-1.302;2023-04-26T11:41:48;100389.41;;;13.97;60.81
48652;BME280;34442;52.362;-1.302;2023-04-26T11:44:19;100383.06;;;13.92;57.28
48652;BME280;34442;52.362;-1.302;2023-04-26T11:46:47;100384.50;;;14.06;59.35
48652;BME280;34442;52.362;-1.302;2023-04-26T11:49:13;100385.25;;;14.55;58.79
48652;BME280;34442;52.362;-1.302;2023-04-26T11:51:40;100384.56;;;14.59;57.08
48652;BME280;34442;52.362;-1.302;2023-04-26T11:54:06;100396.31;;;14.11;59.10
48652;BME280;34442;52.362;-1.302;2023-04-26T11:56:32;100386.34;;;13.94;59.15
48652;BME280;34442;52.362;-1.302;2023-04-26T11:58:57;100387.97;;;14.55;58.63
48652;BME280;34442;52.362;-1.302;2023-04-26T12:01:28;100381.16;;;14.76;57.76
48652;BME280;34442;52.362;-1.302;2023-04-26T12:03:57;100384.13;;;14.32;57.61
48652;BME280;34442;52.362;-1.302;2023-04-26T12:06:31;100378.13;;;14.30;56.29
48652;BME280;34442;52.362;-1.302;2023-04-26T12:09:00;100386.97;;;14.37;57.07
48652;BME280;34442;52.362;-1.302;2023-04-26T12:11:26;100367.91;;;14.44;57.78
48652;BME280;34442;52.362;-1.302;2023-04-26T12:13:52;100377.97;;;14.55;57.24
48652;BME280;34442;52.362;-1.302;2023-04-26T12:16:17;100370.72;;;14.79;56.22
48652;BME280;34442;52.362;-1.302;2023-04-26T12:18:49;100374.00;;;15.17;54.71
48652;BME280;34442;52.362;-1.302;2023-04-26T12:21:15;100370.00;;;15.19;56.24
48652;BME280;34442;52.362;-1.302;2023-04-26T12:23:41;100375.63;;;14.59;56.84
48652;BME280;34442;52.362;-1.302;2023-04-26T12:26:07;100373.06;;;14.34;57.14
48652;BME280;34442;52.362;-1.302;2023-04-26T12:28:35;100380.13;;;14.35;57.64
48652;BME280;34442;52.362;-1.302;2023-04-26T12:31:00;100376.81;;;14.21;57.43
48652;BME280;34442;52.362;-1.302;2023-04-26T12:33:30;100379.34;;;14.04;57.34
48652;BME280;34442;52.362;-1.302;2023-04-26T12:36:06;100365.59;;;14.06;57.85
48652;BME280;34442;52.362;-1.302;2023-04-26T12:38:32;100377.13;;;14.13;57.87
48652;BME280;34442;52.362;-1.302;2023-04-26T12:40:58;100382.59;;;14.25;57.53
48652;BME280;34442;52.362;-1.302;2023-04-26T12:43:23;100378.81;;;14.26;57.45
48652;BME280;34442;52.362;-1.302;2023-04-26T12:45:50;100387.28;;;14.29;57.27
48652;BME280;34442;52.362;-1.302;2023-04-26T12:50:51;100387.22;;;14.06;57.35
48652;BME280;34442;52.362;-1.302;2023-04-26T12:53:16;100386.84;;;14.02;58.05
48652;BME280;34442;52.362;-1.302;2023-04-26T12:55:43;100388.78;;;14.13;57.66
48652;BME280;34442;52.362;-1.302;2023-04-26T12:58:08;100387.94;;;13.83;57.77
48652;BME280;34442;52.362;-1.302;2023-04-26T13:00:33;100391.56;;;13.58;57.58
48652;BME280;34442;52.362;-1.302;2023-04-26T13:02:59;100389.88;;;13.46;58.18
48652;BME280;34442;52.362;-1.302;2023-04-26T13:05:24;100390.50;;;13.78;57.35
48652;BME280;34442;52.362;-1.302;2023-04-26T13:07:50;100393.88;;;13.92;57.02